sensor_id;sensor_type;location;lat;lon;timestamp;P1;durP1;ratioP1;P2;durP2;ratioP2
25107;SDS011;13090;53.422;7.670;2023-12-20T00:00:36;10.32;;;2.75;;
25107;SDS011;13090;53.422;7.670;2023-12-20T00:06:18;12.32;;;2.28;;
25107;SDS011;13090;53.422;7.670;2023-12-20T00:11:58;12.15;;;2.50;;
25107;SDS011;13090;53.422;7.670;2023-12-20T00:17:39;11.85;;;2.63;;
25107;SDS011;13090;53.422;7.670;2023-12-20T00:23:20;14.32;;;2.75;;
25107;SDS011;13090;53.422;7.670;2023-12-20T00:29:00;11.75;;;2.33;;
25107;SDS011;13090;53.422;7.670;2023-12-20T00:34:40;10.73;;;2.20;;
25107;SDS011;13090;53.422;7.670;2023-12-20T00:40:22;13.25;;;2.30;;
25107;SDS011;13090;53.422;7.670;2023-12-20T00:46:03;9.52;;;2.05;;
25107;SDS011;13090;53.422;7.670;2023-12-20T00:51:43;12.27;;;2.40;;
25107;SDS011;13090;53.422;7.670;2023-12-20T00:57:25;15.20;;;2.22;;
25107;SDS011;13090;53.422;7.670;2023-12-20T01:03:05;8.95;;;2.10;;
25107;SDS011;13090;53.422;7.670;2023-12-20T01:08:45;8.90;;;1.90;;
25107;SDS011;13090;53.422;7.670;2023-12-20T01:14:27;14.90;;;2.10;;
25107;SDS011;13090;53.422;7.670;2023-12-20T01:20:07;12.23;;;2.10;;
25107;SDS011;13090;53.422;7.670;2023-12-20T01:25:47;17.88;;;2.22;;
25107;SDS011;13090;53.422;7.670;2023-12-20T01:31:29;10.07;;;2.05;;
25107;SDS011;13090;53.422;7.670;2023-12-20T01:37:09;12.23;;;1.92;;
25107;SDS011;13090;53.422;7.670;2023-12-20T01:42:57;10.20;;;2.00;;
25107;SDS011;13090;53.422;7.670;2023-12-20T01:48:39;10.75;;;1.83;;
25107;SDS011;13090;53.422;7.670;2023-12-20T01:54:20;7.72;;;1.88;;
25107;SDS011;13090;53.422;7.670;2023-12-20T02:00:00;15.82;;;2.08;;
25107;SDS011;13090;53.422;7.670;2023-12-20T02:05:42;9.25;;;1.65;;
25107;SDS011;13090;53.422;7.670;2023-12-20T02:11:23;10.73;;;2.00;;
25107;SDS011;13090;53.422;7.670;2023-12-20T02:17:04;14.98;;;2.00;;
25107;SDS011;13090;53.422;7.670;2023-12-20T02:22:46;9.50;;;2.00;;
25107;SDS011;13090;53.422;7.670;2023-12-20T02:28:26;10.20;;;1.50;;
25107;SDS011;13090;53.422;7.670;2023-12-20T02:34:07;11.98;;;1.55;;
25107;SDS011;13090;53.422;7.670;2023-12-20T02:39:49;9.27;;;1.63;;
25107;SDS011;13090;53.422;7.670;2023-12-20T02:45:29;12.43;;;2.28;;
25107;SDS011;13090;53.422;7.670;2023-12-20T02:51:09;13.43;;;2.30;;
25107;SDS011;13090;53.422;7.670;2023-12-20T02:56:51;9.20;;;2.38;;
25107;SDS011;13090;53.422;7.670;2023-12-20T03:02:31;7.88;;;1.85;;
25107;SDS011;13090;53.422;7.670;2023-12-20T03:08:11;8.77;;;1.98;;
25107;SDS011;13090;53.422;7.670;2023-12-20T03:13:53;10.73;;;2.40;;
25107;SDS011;13090;53.422;7.670;2023-12-20T03:19:33;12.25;;;1.90;;
25107;SDS011;13090;53.422;7.670;2023-12-20T03:25:13;14.88;;;2.58;;
25107;SDS011;13090;53.422;7.670;2023-12-20T03:30:55;11.52;;;2.22;;
25107;SDS011;13090;53.422;7.670;2023-12-20T03:36:35;20.90;;;2.90;;
25107;SDS011;13090;53.422;7.670;2023-12-20T03:42:16;13.57;;;2.35;;
25107;SDS011;13090;53.422;7.670;2023-12-20T03:47:57;15.20;;;1.95;;
25107;SDS011;13090;53.422;7.670;2023-12-20T03:53:37;9.27;;;1.90;;
25107;SDS011;13090;53.422;7.670;2023-12-20T03:59:18;15.55;;;2.58;;
25107;SDS011;13090;53.422;7.670;2023-12-20T04:05:00;19.23;;;3.08;;
25107;SDS011;13090;53.422;7.670;2023-12-20T04:10:40;15.20;;;2.25;;
25107;SDS011;13090;53.422;7.670;2023-12-20T04:16:20;14.13;;;2.13;;
25107;SDS011;13090;53.422;7.670;2023-12-20T04:22:02;15.73;;;2.92;;
25107;SDS011;13090;53.422;7.670;2023-12-20T04:27:43;12.23;;;2.08;;
25107;SDS011;13090;53.422;7.670;2023-12-20T04:33:23;14.30;;;2.50;;
25107;SDS011;13090;53.422;7.670;2023-12-20T04:39:05;18.42;;;2.95;;
25107;SDS011;13090;53.422;7.670;2023-12-20T04:44:45;20.65;;;3.53;;
25107;SDS011;13090;53.422;7.670;2023-12-20T04:50:25;18.65;;;3.47;;
25107;SDS011;13090;53.422;7.670;2023-12-20T04:56:07;19.38;;;3.05;;
25107;SDS011;13090;53.422;7.670;2023-12-20T05:01:47;17.52;;;3.60;;
25107;SDS011;13090;53.422;7.670;2023-12-20T05:07:28;22.55;;;3.20;;
25107;SDS011;13090;53.422;7.670;2023-12-20T05:13:09;17.88;;;2.85;;
25107;SDS011;13090;53.422;7.670;2023-12-20T05:18:50;23.73;;;2.92;;
25107;SDS011;13090;53.422;7.670;2023-12-20T05:24:30;18.50;;;3.85;;
25107;SDS011;13090;53.422;7.670;2023-12-20T05:30:12;15.25;;;2.70;;
25107;SDS011;13090;53.422;7.670;2023-12-20T05:35:53;13.25;;;2.72;;
25107;SDS011;13090;53.422;7.670;2023-12-20T05:41:33;14.15;;;2.90;;
25107;SDS011;13090;53.422;7.670;2023-12-20T05:47:14;17.40;;;2.83;;
25107;SDS011;13090;53.422;7.670;2023-12-20T05:52:54;17.95;;;3.10;;
25107;SDS011;13090;53.422;7.670;2023-12-20T05:58:35;15.52;;;3.10;;
25107;SDS011;13090;53.422;7.670;2023-12-20T06:04:17;21.95;;;2.90;;
25107;SDS011;13090;53.422;7.670;2023-12-20T06:10:00;16.13;;;3.00;;
25107;SDS011;13090;53.422;7.670;2023-12-20T06:15:41;23.58;;;3.72;;
25107;SDS011;13090;53.422;7.670;2023-12-20T06:21:22;14.75;;;2.75;;
25107;SDS011;13090;53.422;7.670;2023-12-20T06:27:03;19.92;;;3.20;;
25107;SDS011;13090;53.422;7.670;2023-12-20T06:32:43;18.58;;;2.90;;
25107;SDS011;13090;53.422;7.670;2023-12-20T06:38:25;18.75;;;3.72;;
25107;SDS011;13090;53.422;7.670;2023-12-20T06:44:05;22.10;;;2.92;;
25107;SDS011;13090;53.422;7.670;2023-12-20T06:49:45;19.45;;;3.42;;
25107;SDS011;13090;53.422;7.670;2023-12-20T06:55:26;18.27;;;3.35;;
25107;SDS011;13090;53.422;7.670;2023-12-20T07:01:10;17.88;;;3.72;;
25107;SDS011;13090;53.422;7.670;2023-12-20T07:06:51;18.55;;;3.83;;
25107;SDS011;13090;53.422;7.670;2023-12-20T07:12:33;16.60;;;3.40;;
25107;SDS011;13090;53.422;7.670;2023-12-20T07:18:13;19.73;;;3.78;;
25107;SDS011;13090;53.422;7.670;2023-12-20T07:23:54;23.83;;;3.83;;
25107;SDS011;13090;53.422;7.670;2023-12-20T07:29:35;20.90;;;3.50;;
25107;SDS011;13090;53.422;7.670;2023-12-20T07:35:15;20.45;;;3.38;;
25107;SDS011;13090;53.422;7.670;2023-12-20T07:40:56;16.33;;;3.13;;
25107;SDS011;13090;53.422;7.670;2023-12-20T07:46:39;19.60;;;3.75;;
25107;SDS011;13090;53.422;7.670;2023-12-20T07:52:20;21.70;;;3.70;;
25107;SDS011;13090;53.422;7.670;2023-12-20T07:58:00;17.80;;;3.33;;
25107;SDS011;13090;53.422;7.670;2023-12-20T08:03:42;16.17;;;3.42;;
25107;SDS011;13090;53.422;7.670;2023-12-20T08:09:22;25.83;;;3.90;;
25107;SDS011;13090;53.422;7.670;2023-12-20T08:15:03;21.90;;;4.80;;
25107;SDS011;13090;53.422;7.670;2023-12-20T08:20:45;28.02;;;4.75;;
25107;SDS011;13090;53.422;7.670;2023-12-20T08:26:26;20.65;;;3.50;;
25107;SDS011;13090;53.422;7.670;2023-12-20T08:32:10;5.10;;;1.50;;
25107;SDS011;13090;53.422;7.670;2023-12-20T08:37:53;8.82;;;1.65;;
25107;SDS011;13090;53.422;7.670;2023-12-20T08:43:34;15.57;;;2.08;;
25107;SDS011;13090;53.422;7.670;2023-12-20T08:49:14;9.98;;;1.48;;
25107;SDS011;13090;53.422;7.670;2023-12-20T08:54:56;8.68;;;1.30;;
25107;SDS011;13090;53.422;7.670;2023-12-20T09:00:37;8.15;;;1.48;;
25107;SDS011;13090;53.422;7.670;2023-12-20T09:06:17;6.55;;;1.50;;
25107;SDS011;13090;53.422;7.670;2023-12-20T09:11:59;8.15;;;2.13;;
25107;SDS011;13090;53.422;7.670;2023-12-20T09:17:40;5.28;;;1.25;;
25107;SDS011;13090;53.422;7.670;2023-12-20T09:23:20;11.35;;;1.30;;
25107;SDS011;13090;53.422;7.670;2023-12-20T09:29:02;9.13;;;1.98;;
25107;SDS011;13090;53.422;7.670;2023-12-20T09:34:42;10.10;;;1.40;;
25107;SDS011;13090;53.422;7.670;2023-12-20T09:40:23;6.63;;;1.42;;
25107;SDS011;13090;53.422;7.670;2023-12-20T09:46:07;7.30;;;1.70;;
25107;SDS011;13090;53.422;7.670;2023-12-20T09:51:52;6.18;;;1.08;;
25107;SDS011;13090;53.422;7.670;2023-12-20T09:57:34;8.77;;;1.38;;
25107;SDS011;13090;53.422;7.670;2023-12-20T10:03:15;8.65;;;1.83;;
25107;SDS011;13090;53.422;7.670;2023-12-20T10:08:56;12.75;;;2.72;;
25107;SDS011;13090;53.422;7.670;2023-12-20T10:14:37;9.07;;;1.15;;
25107;SDS011;13090;53.422;7.670;2023-12-20T10:20:20;9.20;;;1.50;;
25107;SDS011;13090;53.422;7.670;2023-12-20T10:26:00;9.43;;;1.58;;
25107;SDS011;13090;53.422;7.670;2023-12-20T10:31:40;14.95;;;2.13;;
25107;SDS011;13090;53.422;7.670;2023-12-20T10:37:23;6.18;;;1.30;;
25107;SDS011;13090;53.422;7.670;2023-12-20T10:43:04;11.30;;;2.03;;
25107;SDS011;13090;53.422;7.670;2023-12-20T10:48:45;16.13;;;2.38;;
25107;SDS011;13090;53.422;7.670;2023-12-20T10:54:29;11.57;;;2.40;;
25107;SDS011;13090;53.422;7.670;2023-12-20T11:00:10;16.40;;;2.25;;
25107;SDS011;13090;53.422;7.670;2023-12-20T11:05:55;13.07;;;2.00;;
25107;SDS011;13090;53.422;7.670;2023-12-20T11:11:45;14.18;;;2.85;;
25107;SDS011;13090;53.422;7.670;2023-12-20T11:17:36;13.43;;;2.25;;
25107;SDS011;13090;53.422;7.670;2023-12-20T11:23:19;7.03;;;1.67;;
25107;SDS011;13090;53.422;7.670;2023-12-20T11:35:18;8.15;;;1.48;;
25107;SDS011;13090;53.422;7.670;2023-12-20T11:41:01;15.93;;;3.00;;
25107;SDS011;13090;53.422;7.670;2023-12-20T11:46:44;13.90;;;2.17;;
25107;SDS011;13090;53.422;7.670;2023-12-20T11:52:24;7.43;;;1.83;;
25107;SDS011;13090;53.422;7.670;2023-12-20T11:58:05;12.60;;;2.22;;
25107;SDS011;13090;53.422;7.670;2023-12-20T12:03:47;10.43;;;2.30;;
25107;SDS011;13090;53.422;7.670;2023-12-20T12:09:29;14.63;;;2.88;;
25107;SDS011;13090;53.422;7.670;2023-12-20T12:15:09;17.42;;;3.17;;
25107;SDS011;13090;53.422;7.670;2023-12-20T12:20:51;13.30;;;2.22;;
25107;SDS011;13090;53.422;7.670;2023-12-20T12:26:40;14.13;;;2.40;;
25107;SDS011;13090;53.422;7.670;2023-12-20T12:32:20;12.38;;;2.65;;
25107;SDS011;13090;53.422;7.670;2023-12-20T12:38:02;16.05;;;2.70;;
25107;SDS011;13090;53.422;7.670;2023-12-20T12:43:43;13.00;;;2.90;;
25107;SDS011;13090;53.422;7.670;2023-12-20T12:49:23;19.10;;;3.30;;
25107;SDS011;13090;53.422;7.670;2023-12-20T12:55:06;18.48;;;2.80;;
25107;SDS011;13090;53.422;7.670;2023-12-20T13:00:47;20.48;;;3.13;;
25107;SDS011;13090;53.422;7.670;2023-12-20T13:06:27;14.45;;;2.70;;
25107;SDS011;13090;53.422;7.670;2023-12-20T13:12:09;16.33;;;2.88;;
25107;SDS011;13090;53.422;7.670;2023-12-20T13:17:49;18.27;;;2.67;;
25107;SDS011;13090;53.422;7.670;2023-12-20T13:23:30;15.77;;;3.40;;
25107;SDS011;13090;53.422;7.670;2023-12-20T13:29:12;15.93;;;3.38;;
25107;SDS011;13090;53.422;7.670;2023-12-20T13:34:52;14.90;;;2.72;;
25107;SDS011;13090;53.422;7.670;2023-12-20T13:40:32;17.35;;;2.90;;
25107;SDS011;13090;53.422;7.670;2023-12-20T13:46:14;16.02;;;2.50;;
25107;SDS011;13090;53.422;7.670;2023-12-20T13:51:55;15.70;;;2.33;;
25107;SDS011;13090;53.422;7.670;2023-12-20T13:57:35;10.70;;;2.60;;
25107;SDS011;13090;53.422;7.670;2023-12-20T14:03:34;18.85;;;2.13;;
25107;SDS011;13090;53.422;7.670;2023-12-20T14:09:14;18.27;;;2.33;;
25107;SDS011;13090;53.422;7.670;2023-12-20T14:14:55;14.32;;;2.38;;
25107;SDS011;13090;53.422;7.670;2023-12-20T14:20:37;14.43;;;2.72;;
25107;SDS011;13090;53.422;7.670;2023-12-20T14:26:17;12.93;;;2.20;;
25107;SDS011;13090;53.422;7.670;2023-12-20T14:31:57;10.82;;;2.03;;
25107;SDS011;13090;53.422;7.670;2023-12-20T14:37:39;6.85;;;1.80;;
25107;SDS011;13090;53.422;7.670;2023-12-20T14:43:19;9.27;;;1.90;;
25107;SDS011;13090;53.422;7.670;2023-12-20T14:49:00;14.25;;;2.65;;
25107;SDS011;13090;53.422;7.670;2023-12-20T14:54:42;9.45;;;2.10;;
25107;SDS011;13090;53.422;7.670;2023-12-20T15:00:22;12.48;;;1.85;;
25107;SDS011;13090;53.422;7.670;2023-12-20T15:06:02;11.07;;;2.22;;
25107;SDS011;13090;53.422;7.670;2023-12-20T15:11:44;9.90;;;2.25;;
25107;SDS011;13090;53.422;7.670;2023-12-20T15:17:24;14.50;;;2.38;;
25107;SDS011;13090;53.422;7.670;2023-12-20T15:23:05;9.80;;;1.90;;
25107;SDS011;13090;53.422;7.670;2023-12-20T15:28:49;11.38;;;2.95;;
25107;SDS011;13090;53.422;7.670;2023-12-20T15:34:29;11.00;;;1.88;;
25107;SDS011;13090;53.422;7.670;2023-12-20T15:40:10;10.43;;;2.25;;
25107;SDS011;13090;53.422;7.670;2023-12-20T15:45:52;9.38;;;2.00;;
25107;SDS011;13090;53.422;7.670;2023-12-20T15:51:32;8.20;;;1.85;;
25107;SDS011;13090;53.422;7.670;2023-12-20T15:57:13;8.35;;;1.55;;
25107;SDS011;13090;53.422;7.670;2023-12-20T16:02:55;9.43;;;1.95;;
25107;SDS011;13090;53.422;7.670;2023-12-20T16:08:35;8.27;;;1.88;;
25107;SDS011;13090;53.422;7.670;2023-12-20T16:14:15;11.70;;;2.60;;
25107;SDS011;13090;53.422;7.670;2023-12-20T16:19:57;5.05;;;1.55;;
25107;SDS011;13090;53.422;7.670;2023-12-20T16:25:37;6.90;;;2.00;;
25107;SDS011;13090;53.422;7.670;2023-12-20T16:31:18;9.73;;;2.40;;
25107;SDS011;13090;53.422;7.670;2023-12-20T16:36:59;9.00;;;2.08;;
25107;SDS011;13090;53.422;7.670;2023-12-20T16:42:40;4.05;;;1.65;;
25107;SDS011;13090;53.422;7.670;2023-12-20T16:48:20;4.57;;;1.67;;
25107;SDS011;13090;53.422;7.670;2023-12-20T16:54:02;8.35;;;1.70;;
25107;SDS011;13090;53.422;7.670;2023-12-20T16:59:42;7.25;;;1.48;;
25107;SDS011;13090;53.422;7.670;2023-12-20T17:05:22;5.57;;;1.98;;
25107;SDS011;13090;53.422;7.670;2023-12-20T17:11:04;5.45;;;1.63;;
25107;SDS011;13090;53.422;7.670;2023-12-20T17:16:44;8.80;;;1.92;;
25107;SDS011;13090;53.422;7.670;2023-12-20T17:22:25;10.15;;;1.90;;
25107;SDS011;13090;53.422;7.670;2023-12-20T17:28:09;7.78;;;1.80;;
25107;SDS011;13090;53.422;7.670;2023-12-20T17:33:49;7.03;;;1.95;;
25107;SDS011;13090;53.422;7.670;2023-12-20T17:39:30;7.15;;;1.50;;
25107;SDS011;13090;53.422;7.670;2023-12-20T17:45:12;14.93;;;2.50;;
25107;SDS011;13090;53.422;7.670;2023-12-20T17:50:52;7.18;;;1.65;;
25107;SDS011;13090;53.422;7.670;2023-12-20T17:56:32;15.23;;;2.47;;
25107;SDS011;13090;53.422;7.670;2023-12-20T18:02:14;8.18;;;1.75;;
25107;SDS011;13090;53.422;7.670;2023-12-20T18:07:54;13.75;;;2.15;;
25107;SDS011;13090;53.422;7.670;2023-12-20T18:13:35;9.52;;;2.20;;
25107;SDS011;13090;53.422;7.670;2023-12-20T18:19:16;8.70;;;2.33;;
25107;SDS011;13090;53.422;7.670;2023-12-20T18:24:59;12.23;;;2.40;;
25107;SDS011;13090;53.422;7.670;2023-12-20T18:30:40;13.18;;;2.83;;
25107;SDS011;13090;53.422;7.670;2023-12-20T18:36:23;10.15;;;2.50;;
25107;SDS011;13090;53.422;7.670;2023-12-20T18:42:05;9.05;;;2.58;;
25107;SDS011;13090;53.422;7.670;2023-12-20T18:47:48;8.85;;;2.47;;
25107;SDS011;13090;53.422;7.670;2023-12-20T18:53:37;9.27;;;2.63;;
25107;SDS011;13090;53.422;7.670;2023-12-20T18:59:22;8.63;;;2.97;;
25107;SDS011;13090;53.422;7.670;2023-12-20T19:05:04;9.75;;;2.60;;
25107;SDS011;13090;53.422;7.670;2023-12-20T19:10:49;12.35;;;3.20;;
25107;SDS011;13090;53.422;7.670;2023-12-20T19:16:36;6.82;;;2.60;;
25107;SDS011;13090;53.422;7.670;2023-12-20T19:22:18;5.90;;;2.47;;
25107;SDS011;13090;53.422;7.670;2023-12-20T19:28:02;7.00;;;3.20;;
25107;SDS011;13090;53.422;7.670;2023-12-20T19:33:47;9.52;;;2.55;;
25107;SDS011;13090;53.422;7.670;2023-12-20T19:39:28;8.27;;;2.83;;
25107;SDS011;13090;53.422;7.670;2023-12-20T19:45:12;5.18;;;2.00;;
25107;SDS011;13090;53.422;7.670;2023-12-20T19:50:55;4.43;;;1.95;;
25107;SDS011;13090;53.422;7.670;2023-12-20T19:56:36;4.50;;;1.90;;
25107;SDS011;13090;53.422;7.670;2023-12-20T20:02:18;2.47;;;1.45;;
25107;SDS011;13090;53.422;7.670;2023-12-20T20:08:01;2.33;;;1.70;;
25107;SDS011;13090;53.422;7.670;2023-12-20T20:13:42;2.70;;;1.60;;
25107;SDS011;13090;53.422;7.670;2023-12-20T20:19:25;2.72;;;1.63;;
25107;SDS011;13090;53.422;7.670;2023-12-20T20:25:05;1.95;;;1.50;;
25107;SDS011;13090;53.422;7.670;2023-12-20T20:30:46;2.65;;;1.52;;
25107;SDS011;13090;53.422;7.670;2023-12-20T20:36:27;1.73;;;1.40;;
25107;SDS011;13090;53.422;7.670;2023-12-20T20:42:07;1.65;;;1.27;;
25107;SDS011;13090;53.422;7.670;2023-12-20T20:47:48;3.30;;;1.50;;
25107;SDS011;13090;53.422;7.670;2023-12-20T20:53:37;3.63;;;1.52;;
25107;SDS011;13090;53.422;7.670;2023-12-20T20:59:17;4.38;;;1.80;;
25107;SDS011;13090;53.422;7.670;2023-12-20T21:04:58;5.05;;;2.00;;
25107;SDS011;13090;53.422;7.670;2023-12-20T21:10:40;6.82;;;2.08;;
25107;SDS011;13090;53.422;7.670;2023-12-20T21:16:20;6.68;;;2.38;;
25107;SDS011;13090;53.422;7.670;2023-12-20T21:22:02;9.70;;;2.60;;
25107;SDS011;13090;53.422;7.670;2023-12-20T21:27:43;10.32;;;2.40;;
25107;SDS011;13090;53.422;7.670;2023-12-20T21:33:24;10.07;;;2.00;;
25107;SDS011;13090;53.422;7.670;2023-12-20T21:39:05;10.85;;;2.50;;
25107;SDS011;13090;53.422;7.670;2023-12-20T21:44:49;14.05;;;2.55;;
25107;SDS011;13090;53.422;7.670;2023-12-20T21:50:29;13.75;;;2.92;;
25107;SDS011;13090;53.422;7.670;2023-12-20T21:56:10;18.10;;;3.00;;
25107;SDS011;13090;53.422;7.670;2023-12-20T22:01:52;11.95;;;2.38;;
25107;SDS011;13090;53.422;7.670;2023-12-20T22:07:33;14.80;;;3.33;;
25107;SDS011;13090;53.422;7.670;2023-12-20T22:13:13;17.67;;;3.10;;
25107;SDS011;13090;53.422;7.670;2023-12-20T22:18:55;13.63;;;3.10;;
25107;SDS011;13090;53.422;7.670;2023-12-20T22:24:36;16.45;;;2.92;;
25107;SDS011;13090;53.422;7.670;2023-12-20T22:30:17;11.85;;;2.55;;
25107;SDS011;13090;53.422;7.670;2023-12-20T22:35:58;17.85;;;2.92;;
25107;SDS011;13090;53.422;7.670;2023-12-20T22:41:38;17.15;;;2.40;;
25107;SDS011;13090;53.422;7.670;2023-12-20T22:47:18;14.15;;;2.70;;
25107;SDS011;13090;53.422;7.670;2023-12-20T22:53:00;13.52;;;2.92;;
25107;SDS011;13090;53.422;7.670;2023-12-20T22:58:40;21.85;;;3.10;;
25107;SDS011;13090;53.422;7.670;2023-12-20T23:04:20;19.08;;;3.88;;
25107;SDS011;13090;53.422;7.670;2023-12-20T23:10:02;20.55;;;3.35;;
25107;SDS011;13090;53.422;7.670;2023-12-20T23:15:43;23.83;;;3.33;;
25107;SDS011;13090;53.422;7.670;2023-12-20T23:21:23;10.65;;;2.75;;
25107;SDS011;13090;53.422;7.670;2023-12-20T23:27:05;20.17;;;3.60;;
25107;SDS011;13090;53.422;7.670;2023-12-20T23:32:45;17.27;;;3.15;;
25107;SDS011;13090;53.422;7.670;2023-12-20T23:38:25;20.45;;;3.40;;
25107;SDS011;13090;53.422;7.670;2023-12-20T23:44:07;15.15;;;3.20;;
25107;SDS011;13090;53.422;7.670;2023-12-20T23:49:48;18.45;;;2.92;;
25107;SDS011;13090;53.422;7.670;2023-12-20T23:55:28;19.40;;;3.42;;
